sensor_id;sensor_type;location;lat;lon;timestamp;pressure;altitude;pressure_sealevel;temperature;humidity
12123;BME280;6125;59.628;17.852;2024-02-26T00:01:45;100696.28;;;-2.54;89.08
12123;BME280;6125;59.628;17.852;2024-02-26T00:04:21;100687.81;;;-2.54;88.54
12123;BME280;6125;59.628;17.852;2024-02-26T00:06:49;100692.69;;;-2.56;89.20
12123;BME280;6125;59.628;17.852;2024-02-26T00:09:27;100690.00;;;-2.57;88.86
12123;BME280;6125;59.628;17.852;2024-02-26T00:11:57;100687.47;;;-2.57;88.77
12123;BME280;6125;59.628;17.852;2024-02-26T00:14:26;100688.72;;;-2.54;88.97
12123;BME280;6125;59.628;17.852;2024-02-26T00:17:00;100692.63;;;-2.49;88.48
12123;BME280;6125;59.628;17.852;2024-02-26T00:19:31;100693.59;;;-2.55;88.71
12123;BME280;6125;59.628;17.852;2024-02-26T00:21:59;100695.44;;;-2.61;88.48
12123;BME280;6125;59.628;17.852;2024-02-26T00:24:33;100699.66;;;-2.69;88.37
12123;BME280;6125;59.628;17.852;2024-02-26T00:27:01;100700.19;;;-2.64;88.51
12123;BME280;6125;59.628;17.852;2024-02-26T00:29:30;100701.06;;;-2.64;88.80
12123;BME280;6125;59.628;17.852;2024-02-26T00:32:06;100709.56;;;-2.63;88.88
12123;BME280;6125;59.628;17.852;2024-02-26T00:34:35;100704.16;;;-2.66;88.96
12123;BME280;6125;59.628;17.852;2024-02-26T00:37:04;100709.97;;;-2.67;88.62
12123;BME280;6125;59.628;17.852;2024-02-26T00:39:38;100709.97;;;-2.67;89.02
12123;BME280;6125;59.628;17.852;2024-02-26T00:42:07;100714.47;;;-2.65;89.28
12123;BME280;6125;59.628;17.852;2024-02-26T00:44:35;100717.09;;;-2.56;89.44
12123;BME280;6125;59.628;17.852;2024-02-26T00:47:10;100709.03;;;-2.45;89.37
12123;BME280;6125;59.628;17.852;2024-02-26T00:49:40;100711.84;;;-2.35;89.66
12123;BME280;6125;59.628;17.852;2024-02-26T00:52:08;100713.81;;;-2.16;89.96
12123;BME280;6125;59.628;17.852;2024-02-26T00:54:43;100712.63;;;-2.04;90.16
12123;BME280;6125;59.628;17.852;2024-02-26T00:57:12;100716.88;;;-1.96;90.18
12123;BME280;6125;59.628;17.852;2024-02-26T00:59:40;100723.06;;;-1.85;90.04
12123;BME280;6125;59.628;17.852;2024-02-26T01:02:14;100718.06;;;-1.76;89.75
12123;BME280;6125;59.628;17.852;2024-02-26T01:04:44;100721.09;;;-1.72;90.34
12123;BME280;6125;59.628;17.852;2024-02-26T01:07:12;100732.31;;;-1.70;89.90
12123;BME280;6125;59.628;17.852;2024-02-26T01:09:47;100719.22;;;-1.66;90.07
12123;BME280;6125;59.628;17.852;2024-02-26T01:12:16;100721.16;;;-1.63;90.07
12123;BME280;6125;59.628;17.852;2024-02-26T01:14:44;100710.31;;;-1.62;89.65
12123;BME280;6125;59.628;17.852;2024-02-26T01:17:22;100710.66;;;-1.59;89.99
12123;BME280;6125;59.628;17.852;2024-02-26T01:19:51;100706.03;;;-1.54;89.70
12123;BME280;6125;59.628;17.852;2024-02-26T01:22:20;100707.09;;;-1.52;89.76
12123;BME280;6125;59.628;17.852;2024-02-26T01:24:55;100710.53;;;-1.52;89.72
12123;BME280;6125;59.628;17.852;2024-02-26T01:27:24;100703.69;;;-1.53;90.16
12123;BME280;6125;59.628;17.852;2024-02-26T01:29:54;100701.53;;;-1.57;89.87
12123;BME280;6125;59.628;17.852;2024-02-26T01:32:28;100698.69;;;-1.60;90.18
12123;BME280;6125;59.628;17.852;2024-02-26T01:34:58;100702.22;;;-1.51;90.13
12123;BME280;6125;59.628;17.852;2024-02-26T01:37:26;100707.34;;;-1.42;90.51
12123;BME280;6125;59.628;17.852;2024-02-26T01:40:03;100707.59;;;-1.48;90.60
12123;BME280;6125;59.628;17.852;2024-02-26T01:42:34;100712.16;;;-1.37;90.31
12123;BME280;6125;59.628;17.852;2024-02-26T01:45:02;100711.41;;;-1.36;90.44
12123;BME280;6125;59.628;17.852;2024-02-26T01:47:38;100732.88;;;-1.32;90.15
12123;BME280;6125;59.628;17.852;2024-02-26T01:50:12;100724.00;;;-1.28;90.07
12123;BME280;6125;59.628;17.852;2024-02-26T01:52:47;100723.88;;;-1.21;89.83
12123;BME280;6125;59.628;17.852;2024-02-26T01:55:17;100715.69;;;-1.19;89.90
12123;BME280;6125;59.628;17.852;2024-02-26T01:57:48;100715.88;;;-1.17;89.68
12123;BME280;6125;59.628;17.852;2024-02-26T02:00:24;100712.91;;;-1.13;89.65
12123;BME280;6125;59.628;17.852;2024-02-26T02:02:54;100706.34;;;-1.11;89.90
12123;BME280;6125;59.628;17.852;2024-02-26T02:05:24;100715.03;;;-1.09;89.73
12123;BME280;6125;59.628;17.852;2024-02-26T02:08:00;100708.78;;;-1.04;89.75
12123;BME280;6125;59.628;17.852;2024-02-26T02:10:30;100712.53;;;-1.00;89.41
12123;BME280;6125;59.628;17.852;2024-02-26T02:12:59;100697.63;;;-0.97;89.86
12123;BME280;6125;59.628;17.852;2024-02-26T02:15:33;100692.72;;;-0.96;90.04
12123;BME280;6125;59.628;17.852;2024-02-26T02:18:02;100696.31;;;-0.94;89.25
12123;BME280;6125;59.628;17.852;2024-02-26T02:20:33;100699.31;;;-0.89;89.64
12123;BME280;6125;59.628;17.852;2024-02-26T02:23:08;100700.53;;;-0.85;90.18
12123;BME280;6125;59.628;17.852;2024-02-26T02:25:37;100707.06;;;-0.87;90.13
12123;BME280;6125;59.628;17.852;2024-02-26T02:28:06;100699.06;;;-0.83;89.41
12123;BME280;6125;59.628;17.852;2024-02-26T02:30:41;100702.03;;;-0.79;89.96
12123;BME280;6125;59.628;17.852;2024-02-26T02:33:09;100689.94;;;-0.81;89.88
12123;BME280;6125;59.628;17.852;2024-02-26T02:35:40;100688.16;;;-0.82;89.80
12123;BME280;6125;59.628;17.852;2024-02-26T02:38:18;100693.53;;;-0.79;89.54
12123;BME280;6125;59.628;17.852;2024-02-26T02:40:47;100682.31;;;-0.81;90.06
12123;BME280;6125;59.628;17.852;2024-02-26T02:43:21;100682.03;;;-0.84;89.72
12123;BME280;6125;59.628;17.852;2024-02-26T02:45:50;100687.53;;;-0.88;90.12
12123;BME280;6125;59.628;17.852;2024-02-26T02:48:18;100682.28;;;-0.90;90.03
12123;BME280;6125;59.628;17.852;2024-02-26T02:50:54;100673.75;;;-0.99;90.37
12123;BME280;6125;59.628;17.852;2024-02-26T02:53:22;100672.84;;;-1.00;90.30
12123;BME280;6125;59.628;17.852;2024-02-26T02:55:50;100680.47;;;-1.00;90.58
12123;BME280;6125;59.628;17.852;2024-02-26T02:58:25;100670.06;;;-0.94;90.75
12123;BME280;6125;59.628;17.852;2024-02-26T03:00:54;100678.88;;;-0.91;90.81
12123;BME280;6125;59.628;17.852;2024-02-26T03:03:22;100692.44;;;-0.90;90.36
12123;BME280;6125;59.628;17.852;2024-02-26T03:06:00;100672.00;;;-0.92;90.97
12123;BME280;6125;59.628;17.852;2024-02-26T03:08:29;100694.53;;;-0.95;90.75
12123;BME280;6125;59.628;17.852;2024-02-26T03:10:58;100678.81;;;-0.99;90.63
12123;BME280;6125;59.628;17.852;2024-02-26T03:13:33;100679.25;;;-1.03;91.07
12123;BME280;6125;59.628;17.852;2024-02-26T03:16:04;100677.31;;;-1.06;90.77
12123;BME280;6125;59.628;17.852;2024-02-26T03:18:32;100678.03;;;-1.07;90.94
12123;BME280;6125;59.628;17.852;2024-02-26T03:21:09;100665.34;;;-1.07;90.91
12123;BME280;6125;59.628;17.852;2024-02-26T03:23:38;100673.13;;;-1.05;90.97
12123;BME280;6125;59.628;17.852;2024-02-26T03:26:06;100681.22;;;-1.01;91.08
12123;BME280;6125;59.628;17.852;2024-02-26T03:28:41;100689.97;;;-1.06;91.43
12123;BME280;6125;59.628;17.852;2024-02-26T03:31:10;100685.50;;;-1.08;91.03
12123;BME280;6125;59.628;17.852;2024-02-26T03:33:39;100687.75;;;-1.03;90.97
12123;BME280;6125;59.628;17.852;2024-02-26T03:36:15;100696.00;;;-0.97;91.32
12123;BME280;6125;59.628;17.852;2024-02-26T03:38:43;100681.66;;;-0.96;91.45
12123;BME280;6125;59.628;17.852;2024-02-26T03:41:12;100687.63;;;-0.96;91.22
12123;BME280;6125;59.628;17.852;2024-02-26T03:43:46;100692.25;;;-1.00;91.02
12123;BME280;6125;59.628;17.852;2024-02-26T03:46:15;100689.84;;;-0.99;91.00
12123;BME280;6125;59.628;17.852;2024-02-26T03:48:43;100693.94;;;-0.92;91.00
12123;BME280;6125;59.628;17.852;2024-02-26T03:51:19;100685.00;;;-0.88;91.08
12123;BME280;6125;59.628;17.852;2024-02-26T03:53:47;100685.88;;;-0.88;91.25
12123;BME280;6125;59.628;17.852;2024-02-26T03:56:16;100677.97;;;-0.91;90.98
12123;BME280;6125;59.628;17.852;2024-02-26T03:58:50;100677.66;;;-0.94;91.04
12123;BME280;6125;59.628;17.852;2024-02-26T04:01:19;100682.28;;;-0.90;91.21
12123;BME280;6125;59.628;17.852;2024-02-26T04:03:47;100671.47;;;-1.05;90.88
12123;BME280;6125;59.628;17.852;2024-02-26T04:06:23;100687.19;;;-1.00;90.92
12123;BME280;6125;59.628;17.852;2024-02-26T04:08:51;100677.19;;;-0.99;91.03
12123;BME280;6125;59.628;17.852;2024-02-26T04:11:19;100665.38;;;-0.98;90.93
12123;BME280;6125;59.628;17.852;2024-02-26T04:13:55;100670.81;;;-0.95;91.05
12123;BME280;6125;59.628;17.852;2024-02-26T04:16:25;100677.19;;;-0.99;91.23
12123;BME280;6125;59.628;17.852;2024-02-26T04:18:53;100677.34;;;-0.97;90.74
12123;BME280;6125;59.628;17.852;2024-02-26T04:21:32;100679.00;;;-0.98;90.78
12123;BME280;6125;59.628;17.852;2024-02-26T04:24:01;100686.03;;;-0.95;91.09
12123;BME280;6125;59.628;17.852;2024-02-26T04:26:37;100685.31;;;-0.85;91.24
12123;BME280;6125;59.628;17.852;2024-02-26T04:29:05;100685.31;;;-0.85;90.90
12123;BME280;6125;59.628;17.852;2024-02-26T04:31:34;100689.63;;;-0.84;91.09
12123;BME280;6125;59.628;17.852;2024-02-26T04:34:09;100694.28;;;-0.80;91.07
12123;BME280;6125;59.628;17.852;2024-02-26T04:36:41;100700.88;;;-0.74;90.95
12123;BME280;6125;59.628;17.852;2024-02-26T04:39:16;100696.28;;;-0.69;90.95
12123;BME280;6125;59.628;17.852;2024-02-26T04:41:45;100696.41;;;-0.68;90.60
12123;BME280;6125;59.628;17.852;2024-02-26T04:44:13;100689.88;;;-0.65;90.67
12123;BME280;6125;59.628;17.852;2024-02-26T04:46:47;100705.56;;;-0.61;90.52
12123;BME280;6125;59.628;17.852;2024-02-26T04:49:16;100685.41;;;-0.59;90.72
12123;BME280;6125;59.628;17.852;2024-02-26T04:51:45;100695.72;;;-0.58;90.59
12123;BME280;6125;59.628;17.852;2024-02-26T04:54:21;100691.72;;;-0.56;90.81
12123;BME280;6125;59.628;17.852;2024-02-26T04:56:49;100699.34;;;-0.56;90.62
12123;BME280;6125;59.628;17.852;2024-02-26T04:59:17;100691.72;;;-0.56;90.68
12123;BME280;6125;59.628;17.852;2024-02-26T05:01:52;100699.16;;;-0.57;90.55
12123;BME280;6125;59.628;17.852;2024-02-26T05:04:20;100698.69;;;-0.62;90.74
12123;BME280;6125;59.628;17.852;2024-02-26T05:06:50;100709.59;;;-0.63;90.59
12123;BME280;6125;59.628;17.852;2024-02-26T05:09:25;100703.16;;;-0.59;90.43
12123;BME280;6125;59.628;17.852;2024-02-26T05:11:53;100712.75;;;-0.57;90.60
12123;BME280;6125;59.628;17.852;2024-02-26T05:14:21;100713.31;;;-0.59;91.08
12123;BME280;6125;59.628;17.852;2024-02-26T05:16:56;100698.84;;;-0.60;90.46
12123;BME280;6125;59.628;17.852;2024-02-26T05:19:24;100694.66;;;-0.60;90.98
12123;BME280;6125;59.628;17.852;2024-02-26T05:21:53;100705.41;;;-0.62;91.19
12123;BME280;6125;59.628;17.852;2024-02-26T05:24:29;100718.25;;;-0.61;91.18
12123;BME280;6125;59.628;17.852;2024-02-26T05:26:57;100701.38;;;-0.60;90.88
12123;BME280;6125;59.628;17.852;2024-02-26T05:29:25;100703.16;;;-0.59;91.10
12123;BME280;6125;59.628;17.852;2024-02-26T05:32:00;100703.03;;;-0.61;90.42
12123;BME280;6125;59.628;17.852;2024-02-26T05:34:28;100709.91;;;-0.60;90.78
12123;BME280;6125;59.628;17.852;2024-02-26T05:36:58;100705.56;;;-0.61;90.99
12123;BME280;6125;59.628;17.852;2024-02-26T05:39:33;100714.06;;;-0.60;90.74
12123;BME280;6125;59.628;17.852;2024-02-26T05:42:01;100720.63;;;-0.62;90.66
12123;BME280;6125;59.628;17.852;2024-02-26T05:44:31;100710.78;;;-0.59;90.85
12123;BME280;6125;59.628;17.852;2024-02-26T05:47:06;100710.66;;;-0.61;90.35
12123;BME280;6125;59.628;17.852;2024-02-26T05:49:34;100717.38;;;-0.61;90.48
12123;BME280;6125;59.628;17.852;2024-02-26T05:52:04;100737.31;;;-0.64;90.66
12123;BME280;6125;59.628;17.852;2024-02-26T05:54:39;100715.25;;;-0.65;90.64
12123;BME280;6125;59.628;17.852;2024-02-26T05:57:07;100742.25;;;-0.66;91.07
12123;BME280;6125;59.628;17.852;2024-02-26T05:59:35;100729.09;;;-0.71;90.43
12123;BME280;6125;59.628;17.852;2024-02-26T06:02:10;100729.84;;;-0.72;90.82
12123;BME280;6125;59.628;17.852;2024-02-26T06:04:38;100728.78;;;-0.74;90.24
12123;BME280;6125;59.628;17.852;2024-02-26T06:07:07;100735.06;;;-0.70;90.69
12123;BME280;6125;59.628;17.852;2024-02-26T06:09:43;100742.69;;;-0.70;90.72
12123;BME280;6125;59.628;17.852;2024-02-26T06:12:11;100734.59;;;-0.75;90.79
12123;BME280;6125;59.628;17.852;2024-02-26T06:14:39;100745.59;;;-0.83;90.79
12123;BME280;6125;59.628;17.852;2024-02-26T06:17:14;100739.63;;;-0.83;91.10
12123;BME280;6125;59.628;17.852;2024-02-26T06:19:42;100741.88;;;-0.86;91.13
12123;BME280;6125;59.628;17.852;2024-02-26T06:22:12;100749.78;;;-0.83;90.84
12123;BME280;6125;59.628;17.852;2024-02-26T06:24:47;100752.91;;;-0.86;91.38
12123;BME280;6125;59.628;17.852;2024-02-26T06:27:15;100738.84;;;-0.91;91.38
12123;BME280;6125;59.628;17.852;2024-02-26T06:29:43;100742.59;;;-0.87;91.42
12123;BME280;6125;59.628;17.852;2024-02-26T06:32:20;100734.88;;;-0.80;91.57
12123;BME280;6125;59.628;17.852;2024-02-26T06:34:50;100752.81;;;-0.70;91.72
12123;BME280;6125;59.628;17.852;2024-02-26T06:37:26;100743.31;;;-0.64;91.52
12123;BME280;6125;59.628;17.852;2024-02-26T06:39:54;100759.84;;;-0.68;91.53
12123;BME280;6125;59.628;17.852;2024-02-26T06:42:22;100751.25;;;-0.61;91.07
12123;BME280;6125;59.628;17.852;2024-02-26T06:44:58;100750.19;;;-0.63;91.11
12123;BME280;6125;59.628;17.852;2024-02-26T06:47:26;100760.03;;;-0.66;91.12
12123;BME280;6125;59.628;17.852;2024-02-26T06:49:54;100756.91;;;-0.63;91.39
12123;BME280;6125;59.628;17.852;2024-02-26T06:52:32;100759.19;;;-0.58;90.92
12123;BME280;6125;59.628;17.852;2024-02-26T06:55:00;100762.81;;;-0.47;90.30
12123;BME280;6125;59.628;17.852;2024-02-26T06:57:29;100756.44;;;-0.35;90.50
12123;BME280;6125;59.628;17.852;2024-02-26T07:00:04;100759.69;;;-0.44;90.72
12123;BME280;6125;59.628;17.852;2024-02-26T07:02:33;100753.28;;;-0.41;91.15
12123;BME280;6125;59.628;17.852;2024-02-26T07:05:05;100762.53;;;-0.41;90.08
12123;BME280;6125;59.628;17.852;2024-02-26T07:07:41;100759.91;;;-0.17;89.96
12123;BME280;6125;59.628;17.852;2024-02-26T07:10:10;100757.34;;;-0.26;90.46
12123;BME280;6125;59.628;17.852;2024-02-26T07:12:39;100765.00;;;-0.17;90.10
12123;BME280;6125;59.628;17.852;2024-02-26T07:15:14;100762.28;;;-0.27;90.03
12123;BME280;6125;59.628;17.852;2024-02-26T07:17:42;100765.28;;;-0.23;89.70
12123;BME280;6125;59.628;17.852;2024-02-26T07:20:14;100765.63;;;-0.11;89.69
12123;BME280;6125;59.628;17.852;2024-02-26T07:22:52;100762.38;;;0.08;89.77
12123;BME280;6125;59.628;17.852;2024-02-26T07:25:20;100773.19;;;0.22;89.61
12123;BME280;6125;59.628;17.852;2024-02-26T07:27:48;100766.00;;;0.27;88.74
12123;BME280;6125;59.628;17.852;2024-02-26T07:30:23;100783.06;;;0.28;88.29
12123;BME280;6125;59.628;17.852;2024-02-26T07:32:52;100782.91;;;0.35;88.67
12123;BME280;6125;59.628;17.852;2024-02-26T07:35:20;100783.81;;;0.44;88.35
12123;BME280;6125;59.628;17.852;2024-02-26T07:37:56;100782.16;;;0.36;87.36
12123;BME280;6125;59.628;17.852;2024-02-26T07:40:24;100798.34;;;0.46;87.81
12123;BME280;6125;59.628;17.852;2024-02-26T07:42:53;100790.56;;;0.53;87.28
12123;BME280;6125;59.628;17.852;2024-02-26T07:45:29;100785.47;;;0.53;87.40
12123;BME280;6125;59.628;17.852;2024-02-26T07:47:57;100789.84;;;0.71;87.08
12123;BME280;6125;59.628;17.852;2024-02-26T07:50:25;100809.13;;;0.78;86.84
12123;BME280;6125;59.628;17.852;2024-02-26T07:53:01;100788.78;;;0.78;86.15
12123;BME280;6125;59.628;17.852;2024-02-26T07:55:30;100796.28;;;0.76;86.44
12123;BME280;6125;59.628;17.852;2024-02-26T07:57:58;100795.22;;;0.74;86.29
12123;BME280;6125;59.628;17.852;2024-02-26T08:00:35;100807.75;;;0.55;86.40
12123;BME280;6125;59.628;17.852;2024-02-26T08:03:04;100807.34;;;0.68;86.30
12123;BME280;6125;59.628;17.852;2024-02-26T08:05:32;100821.13;;;0.70;86.19
12123;BME280;6125;59.628;17.852;2024-02-26T08:08:08;100810.31;;;0.73;86.07
12123;BME280;6125;59.628;17.852;2024-02-26T08:10:37;100803.44;;;0.80;86.90
12123;BME280;6125;59.628;17.852;2024-02-26T08:13:05;100808.22;;;0.69;86.50
12123;BME280;6125;59.628;17.852;2024-02-26T08:15:40;100812.72;;;1.06;87.05
12123;BME280;6125;59.628;17.852;2024-02-26T08:18:08;100812.97;;;1.35;86.13
12123;BME280;6125;59.628;17.852;2024-02-26T08:20:37;100813.41;;;1.31;85.17
12123;BME280;6125;59.628;17.852;2024-02-26T08:23:13;100825.38;;;1.49;84.48
12123;BME280;6125;59.628;17.852;2024-02-26T08:25:41;100814.59;;;1.52;84.34
12123;BME280;6125;59.628;17.852;2024-02-26T08:28:10;100822.75;;;1.75;83.96
12123;BME280;6125;59.628;17.852;2024-02-26T08:30:46;100821.34;;;1.51;84.43
12123;BME280;6125;59.628;17.852;2024-02-26T08:33:14;100819.50;;;1.59;83.95
12123;BME280;6125;59.628;17.852;2024-02-26T08:35:42;100821.13;;;1.67;84.48
12123;BME280;6125;59.628;17.852;2024-02-26T08:38:19;100827.88;;;1.67;83.31
12123;BME280;6125;59.628;17.852;2024-02-26T08:40:48;100828.75;;;1.67;83.84
12123;BME280;6125;59.628;17.852;2024-02-26T08:43:16;100831.75;;;1.72;83.91
12123;BME280;6125;59.628;17.852;2024-02-26T08:45:52;100837.34;;;1.95;83.50
12123;BME280;6125;59.628;17.852;2024-02-26T08:48:20;100841.19;;;2.09;82.97
12123;BME280;6125;59.628;17.852;2024-02-26T08:50:49;100850.41;;;2.26;82.59
12123;BME280;6125;59.628;17.852;2024-02-26T08:53:25;100843.56;;;2.16;82.41
12123;BME280;6125;59.628;17.852;2024-02-26T08:56:07;100846.97;;;2.26;82.67
12123;BME280;6125;59.628;17.852;2024-02-26T08:58:42;100852.50;;;1.94;83.17
12123;BME280;6125;59.628;17.852;2024-02-26T09:01:10;100839.50;;;1.91;83.09
12123;BME280;6125;59.628;17.852;2024-02-26T09:03:38;100847.34;;;1.66;84.28
12123;BME280;6125;59.628;17.852;2024-02-26T09:06:14;100844.88;;;1.94;83.85
12123;BME280;6125;59.628;17.852;2024-02-26T09:08:44;100845.06;;;2.14;83.45
12123;BME280;6125;59.628;17.852;2024-02-26T09:11:13;100846.78;;;2.33;82.70
12123;BME280;6125;59.628;17.852;2024-02-26T09:13:48;100853.41;;;2.31;83.03
12123;BME280;6125;59.628;17.852;2024-02-26T09:16:16;100857.00;;;2.33;83.32
12123;BME280;6125;59.628;17.852;2024-02-26T09:18:44;100855.28;;;2.14;83.69
12123;BME280;6125;59.628;17.852;2024-02-26T09:21:20;100861.53;;;2.18;82.68
12123;BME280;6125;59.628;17.852;2024-02-26T09:23:52;100869.53;;;2.40;82.18
12123;BME280;6125;59.628;17.852;2024-02-26T09:26:28;100864.94;;;2.55;82.16
12123;BME280;6125;59.628;17.852;2024-02-26T09:29:01;100864.88;;;2.44;81.96
12123;BME280;6125;59.628;17.852;2024-02-26T09:31:37;100876.97;;;2.56;81.44
12123;BME280;6125;59.628;17.852;2024-02-26T09:34:08;100878.34;;;2.52;81.78
12123;BME280;6125;59.628;17.852;2024-02-26T09:36:36;100886.66;;;2.41;82.04
12123;BME280;6125;59.628;17.852;2024-02-26T09:39:12;100876.47;;;2.41;82.00
12123;BME280;6125;59.628;17.852;2024-02-26T09:41:44;100879.34;;;2.54;81.88
12123;BME280;6125;59.628;17.852;2024-02-26T09:44:20;100884.84;;;2.40;81.98
12123;BME280;6125;59.628;17.852;2024-02-26T09:46:50;100871.91;;;2.47;82.30
12123;BME280;6125;59.628;17.852;2024-02-26T09:49:27;100877.28;;;2.50;81.76
12123;BME280;6125;59.628;17.852;2024-02-26T09:51:56;100877.84;;;2.56;81.59
12123;BME280;6125;59.628;17.852;2024-02-26T09:54:27;100868.47;;;2.65;81.95
12123;BME280;6125;59.628;17.852;2024-02-26T09:57:05;100881.16;;;2.55;81.25
12123;BME280;6125;59.628;17.852;2024-02-26T09:59:49;100874.25;;;2.54;81.54
12123;BME280;6125;59.628;17.852;2024-02-26T10:02:26;100874.91;;;2.71;81.90
12123;BME280;6125;59.628;17.852;2024-02-26T10:04:57;100867.53;;;2.74;81.06
12123;BME280;6125;59.628;17.852;2024-02-26T10:07:40;100881.22;;;2.93;80.87
12123;BME280;6125;59.628;17.852;2024-02-26T10:10:11;100880.69;;;2.59;81.26
12123;BME280;6125;59.628;17.852;2024-02-26T10:12:39;100884.66;;;2.47;82.10
12123;BME280;6125;59.628;17.852;2024-02-26T10:15:14;100882.50;;;2.24;83.56
12123;BME280;6125;59.628;17.852;2024-02-26T10:17:43;100884.88;;;2.31;83.37
12123;BME280;6125;59.628;17.852;2024-02-26T10:20:12;100879.78;;;2.59;83.57
12123;BME280;6125;59.628;17.852;2024-02-26T10:22:49;100878.41;;;3.09;82.22
12123;BME280;6125;59.628;17.852;2024-02-26T10:25:20;100879.31;;;3.57;80.97
12123;BME280;6125;59.628;17.852;2024-02-26T10:27:57;100874.63;;;3.72;79.99
12123;BME280;6125;59.628;17.852;2024-02-26T10:30:28;100874.38;;;3.40;79.39
12123;BME280;6125;59.628;17.852;2024-02-26T10:33:03;100881.28;;;2.84;81.35
12123;BME280;6125;59.628;17.852;2024-02-26T10:35:31;100880.28;;;3.30;80.36
12123;BME280;6125;59.628;17.852;2024-02-26T10:38:02;100882.03;;;3.40;81.20
12123;BME280;6125;59.628;17.852;2024-02-26T10:40:39;100878.75;;;3.03;80.52
12123;BME280;6125;59.628;17.852;2024-02-26T10:43:07;100876.00;;;3.58;80.25
12123;BME280;6125;59.628;17.852;2024-02-26T10:45:36;100877.63;;;3.58;79.62
12123;BME280;6125;59.628;17.852;2024-02-26T10:48:15;100871.72;;;3.78;78.97
12123;BME280;6125;59.628;17.852;2024-02-26T10:50:44;100876.19;;;4.10;78.05
12123;BME280;6125;59.628;17.852;2024-02-26T10:53:15;100870.31;;;4.31;77.22
12123;BME280;6125;59.628;17.852;2024-02-26T10:55:55;100871.22;;;4.21;77.55
12123;BME280;6125;59.628;17.852;2024-02-26T10:58:25;100868.81;;;4.23;78.66
12123;BME280;6125;59.628;17.852;2024-02-26T11:01:00;100875.50;;;4.52;76.54
12123;BME280;6125;59.628;17.852;2024-02-26T11:03:29;100881.34;;;4.51;77.30
12123;BME280;6125;59.628;17.852;2024-02-26T11:06:08;100882.69;;;4.76;76.12
12123;BME280;6125;59.628;17.852;2024-02-26T11:08:37;100873.19;;;4.65;77.23
12123;BME280;6125;59.628;17.852;2024-02-26T11:11:07;100877.00;;;4.39;78.41
12123;BME280;6125;59.628;17.852;2024-02-26T11:13:47;100873.44;;;4.37;77.58
12123;BME280;6125;59.628;17.852;2024-02-26T11:16:18;100868.81;;;4.23;78.88
12123;BME280;6125;59.628;17.852;2024-02-26T11:18:53;100862.53;;;4.30;79.43
12123;BME280;6125;59.628;17.852;2024-02-26T11:21:23;100861.94;;;4.63;78.40
12123;BME280;6125;59.628;17.852;2024-02-26T11:24:04;100858.72;;;4.45;78.79
12123;BME280;6125;59.628;17.852;2024-02-26T11:26:39;100873.47;;;4.08;79.47
12123;BME280;6125;59.628;17.852;2024-02-26T11:29:21;100861.41;;;4.26;79.85
12123;BME280;6125;59.628;17.852;2024-02-26T11:31:50;100867.66;;;4.30;79.78
12123;BME280;6125;59.628;17.852;2024-02-26T11:34:26;100869.97;;;4.67;79.14
12123;BME280;6125;59.628;17.852;2024-02-26T11:36:55;100868.03;;;4.96;78.22
12123;BME280;6125;59.628;17.852;2024-02-26T11:39:24;100864.94;;;5.20;77.58
12123;BME280;6125;59.628;17.852;2024-02-26T11:42:06;100864.03;;;5.30;76.27
12123;BME280;6125;59.628;17.852;2024-02-26T11:44:35;100861.53;;;4.99;76.31
12123;BME280;6125;59.628;17.852;2024-02-26T11:47:11;100867.41;;;4.47;78.57
12123;BME280;6125;59.628;17.852;2024-02-26T11:49:39;100865.63;;;4.36;80.02
12123;BME280;6125;59.628;17.852;2024-02-26T11:52:09;100871.66;;;4.46;80.21
12123;BME280;6125;59.628;17.852;2024-02-26T11:54:45;100867.03;;;4.83;78.88
12123;BME280;6125;59.628;17.852;2024-02-26T11:57:25;100873.16;;;4.96;77.73
12123;BME280;6125;59.628;17.852;2024-02-26T12:00:11;100864.97;;;4.89;78.37
12123;BME280;6125;59.628;17.852;2024-02-26T12:02:43;100870.50;;;4.94;77.35
12123;BME280;6125;59.628;17.852;2024-02-26T12:05:20;100871.53;;;4.96;77.39
12123;BME280;6125;59.628;17.852;2024-02-26T12:07:53;100865.25;;;4.82;77.64
12123;BME280;6125;59.628;17.852;2024-02-26T12:10:31;100875.47;;;5.03;76.06
12123;BME280;6125;59.628;17.852;2024-02-26T12:13:05;100867.53;;;4.89;77.44
12123;BME280;6125;59.628;17.852;2024-02-26T12:15:55;100876.47;;;5.35;76.44
12123;BME280;6125;59.628;17.852;2024-02-26T12:18:24;100873.69;;;5.02;77.13
12123;BME280;6125;59.628;17.852;2024-02-26T12:20:59;100878.84;;;4.71;77.90
12123;BME280;6125;59.628;17.852;2024-02-26T12:23:29;100876.25;;;4.51;79.56
12123;BME280;6125;59.628;17.852;2024-02-26T12:25:58;100873.19;;;4.75;79.70
12123;BME280;6125;59.628;17.852;2024-02-26T12:28:37;100870.78;;;5.39;76.99
12123;BME280;6125;59.628;17.852;2024-02-26T12:31:06;100878.44;;;5.07;77.61
12123;BME280;6125;59.628;17.852;2024-02-26T12:33:41;100876.22;;;5.12;77.18
12123;BME280;6125;59.628;17.852;2024-02-26T12:36:10;100879.91;;;5.26;77.19
12123;BME280;6125;59.628;17.852;2024-02-26T12:38:38;100877.84;;;5.42;76.77
12123;BME280;6125;59.628;17.852;2024-02-26T12:41:13;100884.75;;;5.43;75.78
12123;BME280;6125;59.628;17.852;2024-02-26T12:43:44;100873.72;;;5.76;76.25
12123;BME280;6125;59.628;17.852;2024-02-26T12:46:15;100873.38;;;6.04;74.35
12123;BME280;6125;59.628;17.852;2024-02-26T12:48:51;100876.31;;;6.31;72.49
12123;BME280;6125;59.628;17.852;2024-02-26T12:51:21;100872.03;;;6.19;72.54
12123;BME280;6125;59.628;17.852;2024-02-26T12:53:50;100865.69;;;6.26;73.18
12123;BME280;6125;59.628;17.852;2024-02-26T12:56:25;100869.13;;;5.82;74.45
12123;BME280;6125;59.628;17.852;2024-02-26T12:58:56;100874.63;;;5.34;75.96
12123;BME280;6125;59.628;17.852;2024-02-26T13:01:25;100880.28;;;5.41;76.43
12123;BME280;6125;59.628;17.852;2024-02-26T13:04:01;100879.81;;;5.24;77.51
12123;BME280;6125;59.628;17.852;2024-02-26T13:06:33;100882.56;;;5.48;76.37
12123;BME280;6125;59.628;17.852;2024-02-26T13:09:08;100897.19;;;5.38;77.09
12123;BME280;6125;59.628;17.852;2024-02-26T13:11:40;100896.75;;;4.91;78.84
12123;BME280;6125;59.628;17.852;2024-02-26T13:14:20;100892.75;;;5.05;78.81
12123;BME280;6125;59.628;17.852;2024-02-26T13:16:55;100899.78;;;5.18;78.34
12123;BME280;6125;59.628;17.852;2024-02-26T13:19:30;100912.38;;;5.05;78.46